sensor_id;sensor_type;location;lat;lon;timestamp;P1;durP1;ratioP1;P2;durP2;ratioP2
73456;SDS011;61691;53.072;6.582;2023-04-06T00:00:09;16.83;;;5.03;;
73456;SDS011;61691;53.072;6.582;2023-04-06T00:02:37;16.38;;;4.80;;
73456;SDS011;61691;53.072;6.582;2023-04-06T00:05:04;16.40;;;5.30;;
73456;SDS011;61691;53.072;6.582;2023-04-06T00:07:33;17.42;;;5.35;;
73456;SDS011;61691;53.072;6.582;2023-04-06T00:10:00;16.75;;;5.72;;
73456;SDS011;61691;53.072;6.582;2023-04-06T00:12:26;17.08;;;5.22;;
73456;SDS011;61691;53.072;6.582;2023-04-06T00:14:53;16.45;;;5.10;;
73456;SDS011;61691;53.072;6.582;2023-04-06T00:17:20;17.05;;;5.40;;
73456;SDS011;61691;53.072;6.582;2023-04-06T00:19:46;16.35;;;5.30;;
73456;SDS011;61691;53.072;6.582;2023-04-06T00:22:14;16.75;;;5.18;;
73456;SDS011;61691;53.072;6.582;2023-04-06T00:24:40;17.40;;;4.85;;
73456;SDS011;61691;53.072;6.582;2023-04-06T00:27:07;15.63;;;4.95;;
73456;SDS011;61691;53.072;6.582;2023-04-06T00:29:34;16.35;;;4.90;;
73456;SDS011;61691;53.072;6.582;2023-04-06T00:32:01;17.30;;;4.95;;
73456;SDS011;61691;53.072;6.582;2023-04-06T00:34:27;18.27;;;5.20;;
73456;SDS011;61691;53.072;6.582;2023-04-06T00:36:54;17.73;;;5.40;;
73456;SDS011;61691;53.072;6.582;2023-04-06T00:39:21;16.38;;;5.15;;
73456;SDS011;61691;53.072;6.582;2023-04-06T00:41:51;16.00;;;5.10;;
73456;SDS011;61691;53.072;6.582;2023-04-06T00:44:19;15.13;;;4.82;;
73456;SDS011;61691;53.072;6.582;2023-04-06T00:46:46;16.13;;;4.90;;
73456;SDS011;61691;53.072;6.582;2023-04-06T00:49:13;16.88;;;5.05;;
73456;SDS011;61691;53.072;6.582;2023-04-06T00:51:40;17.95;;;5.20;;
73456;SDS011;61691;53.072;6.582;2023-04-06T00:54:07;15.73;;;5.00;;
73456;SDS011;61691;53.072;6.582;2023-04-06T00:56:33;16.73;;;5.20;;
73456;SDS011;61691;53.072;6.582;2023-04-06T00:59:01;15.55;;;5.13;;
73456;SDS011;61691;53.072;6.582;2023-04-06T01:01:28;18.33;;;5.40;;
73456;SDS011;61691;53.072;6.582;2023-04-06T01:03:55;16.25;;;5.20;;
73456;SDS011;61691;53.072;6.582;2023-04-06T01:06:22;16.40;;;5.47;;
73456;SDS011;61691;53.072;6.582;2023-04-06T01:08:49;18.27;;;5.03;;
73456;SDS011;61691;53.072;6.582;2023-04-06T01:11:17;16.73;;;4.93;;
73456;SDS011;61691;53.072;6.582;2023-04-06T01:13:44;19.35;;;5.00;;
73456;SDS011;61691;53.072;6.582;2023-04-06T01:16:10;17.27;;;5.00;;
73456;SDS011;61691;53.072;6.582;2023-04-06T01:18:37;16.35;;;5.05;;
73456;SDS011;61691;53.072;6.582;2023-04-06T01:21:04;18.42;;;5.75;;
73456;SDS011;61691;53.072;6.582;2023-04-06T01:23:31;16.23;;;4.93;;
73456;SDS011;61691;53.072;6.582;2023-04-06T01:25:58;16.48;;;5.15;;
73456;SDS011;61691;53.072;6.582;2023-04-06T01:28:24;16.23;;;4.90;;
73456;SDS011;61691;53.072;6.582;2023-04-06T01:30:51;16.27;;;5.38;;
73456;SDS011;61691;53.072;6.582;2023-04-06T01:33:18;16.45;;;5.18;;
73456;SDS011;61691;53.072;6.582;2023-04-06T01:35:45;16.05;;;4.82;;
73456;SDS011;61691;53.072;6.582;2023-04-06T01:38:12;17.65;;;5.60;;
73456;SDS011;61691;53.072;6.582;2023-04-06T01:40:39;17.35;;;5.05;;
73456;SDS011;61691;53.072;6.582;2023-04-06T01:43:05;16.98;;;5.05;;
73456;SDS011;61691;53.072;6.582;2023-04-06T01:45:33;16.05;;;4.95;;
73456;SDS011;61691;53.072;6.582;2023-04-06T01:47:59;16.10;;;4.93;;
73456;SDS011;61691;53.072;6.582;2023-04-06T01:50:26;16.50;;;4.97;;
73456;SDS011;61691;53.072;6.582;2023-04-06T01:52:53;15.15;;;4.70;;
73456;SDS011;61691;53.072;6.582;2023-04-06T01:55:19;15.98;;;5.20;;
73456;SDS011;61691;53.072;6.582;2023-04-06T01:57:46;16.42;;;4.75;;
73456;SDS011;61691;53.072;6.582;2023-04-06T02:00:13;17.05;;;5.07;;
73456;SDS011;61691;53.072;6.582;2023-04-06T02:02:40;17.17;;;5.20;;
73456;SDS011;61691;53.072;6.582;2023-04-06T02:05:07;16.40;;;5.20;;
73456;SDS011;61691;53.072;6.582;2023-04-06T02:07:34;17.40;;;5.22;;
73456;SDS011;61691;53.072;6.582;2023-04-06T02:10:01;16.45;;;4.65;;
73456;SDS011;61691;53.072;6.582;2023-04-06T02:12:29;15.93;;;5.10;;
73456;SDS011;61691;53.072;6.582;2023-04-06T02:14:56;17.27;;;5.10;;
73456;SDS011;61691;53.072;6.582;2023-04-06T02:17:22;16.05;;;5.07;;
73456;SDS011;61691;53.072;6.582;2023-04-06T02:19:49;15.60;;;4.97;;
73456;SDS011;61691;53.072;6.582;2023-04-06T02:22:16;15.93;;;4.88;;
73456;SDS011;61691;53.072;6.582;2023-04-06T02:24:43;16.35;;;5.00;;
73456;SDS011;61691;53.072;6.582;2023-04-06T02:27:09;18.90;;;5.13;;
73456;SDS011;61691;53.072;6.582;2023-04-06T02:29:36;17.33;;;5.28;;
73456;SDS011;61691;53.072;6.582;2023-04-06T02:32:03;15.82;;;4.70;;
73456;SDS011;61691;53.072;6.582;2023-04-06T02:34:30;17.95;;;6.00;;
73456;SDS011;61691;53.072;6.582;2023-04-06T02:36:57;14.98;;;4.95;;
73456;SDS011;61691;53.072;6.582;2023-04-06T02:39:23;15.30;;;4.63;;
73456;SDS011;61691;53.072;6.582;2023-04-06T02:41:50;15.55;;;5.10;;
73456;SDS011;61691;53.072;6.582;2023-04-06T02:44:17;16.85;;;4.78;;
73456;SDS011;61691;53.072;6.582;2023-04-06T02:46:44;15.77;;;5.10;;
73456;SDS011;61691;53.072;6.582;2023-04-06T02:49:11;15.82;;;4.90;;
73456;SDS011;61691;53.072;6.582;2023-04-06T02:51:38;15.82;;;4.85;;
73456;SDS011;61691;53.072;6.582;2023-04-06T02:54:04;15.98;;;5.05;;
73456;SDS011;61691;53.072;6.582;2023-04-06T02:56:31;16.52;;;4.88;;
73456;SDS011;61691;53.072;6.582;2023-04-06T02:58:58;16.67;;;4.63;;
73456;SDS011;61691;53.072;6.582;2023-04-06T03:01:25;20.33;;;4.45;;
73456;SDS011;61691;53.072;6.582;2023-04-06T03:03:52;15.05;;;4.72;;
73456;SDS011;61691;53.072;6.582;2023-04-06T03:06:19;16.88;;;5.10;;
73456;SDS011;61691;53.072;6.582;2023-04-06T03:08:46;16.02;;;5.13;;
73456;SDS011;61691;53.072;6.582;2023-04-06T03:11:13;16.10;;;5.13;;
73456;SDS011;61691;53.072;6.582;2023-04-06T03:13:40;16.98;;;5.05;;
73456;SDS011;61691;53.072;6.582;2023-04-06T03:16:07;16.23;;;4.97;;
73456;SDS011;61691;53.072;6.582;2023-04-06T03:18:33;15.15;;;4.75;;
73456;SDS011;61691;53.072;6.582;2023-04-06T03:21:00;19.42;;;5.22;;
73456;SDS011;61691;53.072;6.582;2023-04-06T03:23:27;16.83;;;5.10;;
73456;SDS011;61691;53.072;6.582;2023-04-06T03:25:54;16.20;;;4.95;;
73456;SDS011;61691;53.072;6.582;2023-04-06T03:28:21;15.80;;;4.80;;
73456;SDS011;61691;53.072;6.582;2023-04-06T03:30:48;17.98;;;5.43;;
73456;SDS011;61691;53.072;6.582;2023-04-06T03:33:15;18.48;;;5.35;;
73456;SDS011;61691;53.072;6.582;2023-04-06T03:35:42;16.38;;;4.80;;
73456;SDS011;61691;53.072;6.582;2023-04-06T03:38:09;15.68;;;4.95;;
73456;SDS011;61691;53.072;6.582;2023-04-06T03:40:35;18.08;;;5.70;;
73456;SDS011;61691;53.072;6.582;2023-04-06T03:43:03;16.15;;;5.43;;
73456;SDS011;61691;53.072;6.582;2023-04-06T03:45:30;16.88;;;5.00;;
73456;SDS011;61691;53.072;6.582;2023-04-06T03:47:57;17.33;;;5.32;;
73456;SDS011;61691;53.072;6.582;2023-04-06T03:50:23;18.00;;;5.85;;
73456;SDS011;61691;53.072;6.582;2023-04-06T03:52:50;18.23;;;5.40;;
73456;SDS011;61691;53.072;6.582;2023-04-06T03:55:17;16.98;;;5.03;;
73456;SDS011;61691;53.072;6.582;2023-04-06T03:57:44;15.80;;;5.18;;
73456;SDS011;61691;53.072;6.582;2023-04-06T04:00:10;18.75;;;5.55;;
73456;SDS011;61691;53.072;6.582;2023-04-06T04:02:38;15.10;;;5.30;;
73456;SDS011;61691;53.072;6.582;2023-04-06T04:05:05;16.35;;;5.15;;
73456;SDS011;61691;53.072;6.582;2023-04-06T04:07:32;17.25;;;5.38;;
73456;SDS011;61691;53.072;6.582;2023-04-06T04:09:59;17.17;;;5.55;;
73456;SDS011;61691;53.072;6.582;2023-04-06T04:12:26;16.95;;;5.70;;
73456;SDS011;61691;53.072;6.582;2023-04-06T04:14:52;17.70;;;6.03;;
73456;SDS011;61691;53.072;6.582;2023-04-06T04:17:19;16.52;;;5.20;;
73456;SDS011;61691;53.072;6.582;2023-04-06T04:19:46;17.48;;;5.50;;
73456;SDS011;61691;53.072;6.582;2023-04-06T04:22:13;17.42;;;5.45;;
73456;SDS011;61691;53.072;6.582;2023-04-06T04:24:39;17.60;;;5.35;;
73456;SDS011;61691;53.072;6.582;2023-04-06T04:27:06;16.70;;;5.93;;
73456;SDS011;61691;53.072;6.582;2023-04-06T04:29:33;16.65;;;5.60;;
73456;SDS011;61691;53.072;6.582;2023-04-06T04:31:59;18.27;;;6.13;;
73456;SDS011;61691;53.072;6.582;2023-04-06T04:34:27;16.92;;;6.07;;
73456;SDS011;61691;53.072;6.582;2023-04-06T04:36:54;17.25;;;5.53;;
73456;SDS011;61691;53.072;6.582;2023-04-06T04:39:21;16.30;;;5.55;;
73456;SDS011;61691;53.072;6.582;2023-04-06T04:41:47;17.50;;;5.68;;
73456;SDS011;61691;53.072;6.582;2023-04-06T04:44:14;17.60;;;5.95;;
73456;SDS011;61691;53.072;6.582;2023-04-06T04:46:41;16.00;;;5.28;;
73456;SDS011;61691;53.072;6.582;2023-04-06T04:49:08;16.15;;;5.10;;
73456;SDS011;61691;53.072;6.582;2023-04-06T04:51:34;17.63;;;6.07;;
73456;SDS011;61691;53.072;6.582;2023-04-06T04:54:02;17.27;;;6.15;;
73456;SDS011;61691;53.072;6.582;2023-04-06T04:56:29;19.38;;;6.97;;
73456;SDS011;61691;53.072;6.582;2023-04-06T04:58:56;16.90;;;6.32;;
73456;SDS011;61691;53.072;6.582;2023-04-06T05:01:23;15.77;;;5.40;;
73456;SDS011;61691;53.072;6.582;2023-04-06T05:03:50;17.52;;;5.90;;
73456;SDS011;61691;53.072;6.582;2023-04-06T05:06:17;20.02;;;6.65;;
73456;SDS011;61691;53.072;6.582;2023-04-06T05:08:45;16.48;;;5.93;;
73456;SDS011;61691;53.072;6.582;2023-04-06T05:11:12;16.60;;;5.82;;
73456;SDS011;61691;53.072;6.582;2023-04-06T05:13:39;18.60;;;5.68;;
73456;SDS011;61691;53.072;6.582;2023-04-06T05:16:05;18.73;;;5.93;;
73456;SDS011;61691;53.072;6.582;2023-04-06T05:18:33;17.42;;;5.68;;
73456;SDS011;61691;53.072;6.582;2023-04-06T05:21:00;18.10;;;6.03;;
73456;SDS011;61691;53.072;6.582;2023-04-06T05:23:26;16.77;;;5.97;;
73456;SDS011;61691;53.072;6.582;2023-04-06T05:25:53;16.65;;;6.28;;
73456;SDS011;61691;53.072;6.582;2023-04-06T05:28:20;18.33;;;5.80;;
73456;SDS011;61691;53.072;6.582;2023-04-06T05:30:47;20.13;;;6.35;;
73456;SDS011;61691;53.072;6.582;2023-04-06T05:33:13;18.27;;;6.43;;
73456;SDS011;61691;53.072;6.582;2023-04-06T05:35:40;16.65;;;6.00;;
73456;SDS011;61691;53.072;6.582;2023-04-06T05:38:07;17.50;;;6.30;;
73456;SDS011;61691;53.072;6.582;2023-04-06T05:40:35;18.35;;;6.65;;
73456;SDS011;61691;53.072;6.582;2023-04-06T05:43:04;17.90;;;6.18;;
73456;SDS011;61691;53.072;6.582;2023-04-06T05:45:30;18.15;;;5.93;;
73456;SDS011;61691;53.072;6.582;2023-04-06T05:47:57;17.25;;;6.05;;
73456;SDS011;61691;53.072;6.582;2023-04-06T05:50:24;17.33;;;6.03;;
73456;SDS011;61691;53.072;6.582;2023-04-06T05:52:51;17.65;;;5.78;;
73456;SDS011;61691;53.072;6.582;2023-04-06T05:55:17;17.27;;;6.15;;
73456;SDS011;61691;53.072;6.582;2023-04-06T05:57:44;18.65;;;6.57;;
73456;SDS011;61691;53.072;6.582;2023-04-06T06:00:11;16.70;;;6.28;;
73456;SDS011;61691;53.072;6.582;2023-04-06T06:02:38;17.52;;;6.22;;
73456;SDS011;61691;53.072;6.582;2023-04-06T06:05:06;17.42;;;6.55;;
73456;SDS011;61691;53.072;6.582;2023-04-06T06:07:33;18.52;;;6.70;;
73456;SDS011;61691;53.072;6.582;2023-04-06T06:10:00;17.98;;;6.28;;
73456;SDS011;61691;53.072;6.582;2023-04-06T06:12:27;18.23;;;6.65;;
73456;SDS011;61691;53.072;6.582;2023-04-06T06:14:53;18.73;;;7.15;;
73456;SDS011;61691;53.072;6.582;2023-04-06T06:17:21;17.33;;;6.82;;
73456;SDS011;61691;53.072;6.582;2023-04-06T06:19:48;17.27;;;6.85;;
73456;SDS011;61691;53.072;6.582;2023-04-06T06:22:15;16.83;;;6.38;;
73456;SDS011;61691;53.072;6.582;2023-04-06T06:24:42;18.67;;;6.90;;
73456;SDS011;61691;53.072;6.582;2023-04-06T06:27:08;17.25;;;6.35;;
73456;SDS011;61691;53.072;6.582;2023-04-06T06:29:35;18.75;;;7.47;;
73456;SDS011;61691;53.072;6.582;2023-04-06T06:32:02;17.75;;;6.82;;
73456;SDS011;61691;53.072;6.582;2023-04-06T06:34:29;17.25;;;6.90;;
73456;SDS011;61691;53.072;6.582;2023-04-06T06:36:56;17.38;;;6.25;;
73456;SDS011;61691;53.072;6.582;2023-04-06T06:39:22;17.52;;;6.60;;
73456;SDS011;61691;53.072;6.582;2023-04-06T06:41:49;18.73;;;6.75;;
73456;SDS011;61691;53.072;6.582;2023-04-06T06:44:16;19.58;;;6.68;;
73456;SDS011;61691;53.072;6.582;2023-04-06T06:46:43;18.60;;;6.93;;
73456;SDS011;61691;53.072;6.582;2023-04-06T06:49:09;18.90;;;6.45;;
73456;SDS011;61691;53.072;6.582;2023-04-06T06:51:38;17.65;;;7.22;;
73456;SDS011;61691;53.072;6.582;2023-04-06T06:54:05;18.55;;;7.22;;
73456;SDS011;61691;53.072;6.582;2023-04-06T06:56:33;20.55;;;7.03;;
73456;SDS011;61691;53.072;6.582;2023-04-06T06:59:02;18.50;;;7.07;;
73456;SDS011;61691;53.072;6.582;2023-04-06T07:01:29;18.80;;;7.13;;
73456;SDS011;61691;53.072;6.582;2023-04-06T07:03:55;19.50;;;7.57;;
73456;SDS011;61691;53.072;6.582;2023-04-06T07:06:22;19.20;;;7.47;;
73456;SDS011;61691;53.072;6.582;2023-04-06T07:08:49;17.30;;;6.97;;
73456;SDS011;61691;53.072;6.582;2023-04-06T07:11:16;21.23;;;7.03;;
73456;SDS011;61691;53.072;6.582;2023-04-06T07:13:43;17.85;;;6.93;;
73456;SDS011;61691;53.072;6.582;2023-04-06T07:16:09;20.13;;;7.15;;
73456;SDS011;61691;53.072;6.582;2023-04-06T07:18:36;20.05;;;7.75;;
73456;SDS011;61691;53.072;6.582;2023-04-06T07:21:03;16.92;;;6.57;;
73456;SDS011;61691;53.072;6.582;2023-04-06T07:23:30;18.45;;;7.70;;
73456;SDS011;61691;53.072;6.582;2023-04-06T07:25:57;18.65;;;6.63;;
73456;SDS011;61691;53.072;6.582;2023-04-06T07:28:24;17.30;;;6.85;;
73456;SDS011;61691;53.072;6.582;2023-04-06T07:30:51;17.15;;;6.07;;
73456;SDS011;61691;53.072;6.582;2023-04-06T07:33:18;18.48;;;6.85;;
73456;SDS011;61691;53.072;6.582;2023-04-06T07:35:45;17.35;;;6.60;;
73456;SDS011;61691;53.072;6.582;2023-04-06T07:38:12;18.75;;;7.45;;
73456;SDS011;61691;53.072;6.582;2023-04-06T07:40:39;20.80;;;7.32;;
73456;SDS011;61691;53.072;6.582;2023-04-06T07:43:06;19.02;;;6.38;;
73456;SDS011;61691;53.072;6.582;2023-04-06T07:45:32;17.75;;;6.97;;
73456;SDS011;61691;53.072;6.582;2023-04-06T07:47:59;19.23;;;7.53;;
73456;SDS011;61691;53.072;6.582;2023-04-06T07:50:26;18.38;;;7.57;;
73456;SDS011;61691;53.072;6.582;2023-04-06T07:52:53;16.83;;;6.80;;
73456;SDS011;61691;53.072;6.582;2023-04-06T07:55:20;17.30;;;6.78;;
73456;SDS011;61691;53.072;6.582;2023-04-06T07:57:46;19.13;;;7.45;;
73456;SDS011;61691;53.072;6.582;2023-04-06T08:00:13;17.83;;;7.10;;
73456;SDS011;61691;53.072;6.582;2023-04-06T08:02:40;17.95;;;7.18;;
73456;SDS011;61691;53.072;6.582;2023-04-06T08:05:07;18.48;;;7.43;;
73456;SDS011;61691;53.072;6.582;2023-04-06T08:07:34;19.38;;;7.80;;
73456;SDS011;61691;53.072;6.582;2023-04-06T08:10:02;19.23;;;7.38;;
73456;SDS011;61691;53.072;6.582;2023-04-06T08:12:29;18.67;;;7.43;;
73456;SDS011;61691;53.072;6.582;2023-04-06T08:14:56;19.05;;;7.22;;
73456;SDS011;61691;53.072;6.582;2023-04-06T08:17:23;20.30;;;8.05;;
73456;SDS011;61691;53.072;6.582;2023-04-06T08:19:50;18.10;;;6.57;;
73456;SDS011;61691;53.072;6.582;2023-04-06T08:22:17;19.15;;;7.20;;
73456;SDS011;61691;53.072;6.582;2023-04-06T08:24:44;18.00;;;6.93;;
73456;SDS011;61691;53.072;6.582;2023-04-06T08:27:10;19.40;;;7.65;;
73456;SDS011;61691;53.072;6.582;2023-04-06T08:29:37;18.95;;;7.53;;
73456;SDS011;61691;53.072;6.582;2023-04-06T08:32:04;18.45;;;7.30;;
73456;SDS011;61691;53.072;6.582;2023-04-06T08:34:32;18.25;;;7.28;;
73456;SDS011;61691;53.072;6.582;2023-04-06T08:36:59;19.45;;;7.63;;
73456;SDS011;61691;53.072;6.582;2023-04-06T08:39:27;18.95;;;7.78;;
73456;SDS011;61691;53.072;6.582;2023-04-06T08:41:54;18.48;;;7.70;;
73456;SDS011;61691;53.072;6.582;2023-04-06T08:44:23;19.67;;;7.72;;
73456;SDS011;61691;53.072;6.582;2023-04-06T08:46:50;20.48;;;6.97;;
73456;SDS011;61691;53.072;6.582;2023-04-06T08:49:19;19.95;;;7.60;;
73456;SDS011;61691;53.072;6.582;2023-04-06T08:51:46;19.10;;;7.60;;
73456;SDS011;61691;53.072;6.582;2023-04-06T08:54:13;21.77;;;7.95;;
73456;SDS011;61691;53.072;6.582;2023-04-06T08:56:40;19.17;;;7.47;;
73456;SDS011;61691;53.072;6.582;2023-04-06T08:59:07;19.48;;;7.50;;
73456;SDS011;61691;53.072;6.582;2023-04-06T09:01:37;19.25;;;7.82;;
73456;SDS011;61691;53.072;6.582;2023-04-06T09:04:07;18.60;;;7.22;;
73456;SDS011;61691;53.072;6.582;2023-04-06T09:06:38;20.02;;;7.95;;
73456;SDS011;61691;53.072;6.582;2023-04-06T09:09:07;20.80;;;7.22;;
73456;SDS011;61691;53.072;6.582;2023-04-06T09:11:46;20.23;;;7.75;;
73456;SDS011;61691;53.072;6.582;2023-04-06T09:14:15;20.02;;;8.65;;
73456;SDS011;61691;53.072;6.582;2023-04-06T09:16:44;20.77;;;7.55;;
73456;SDS011;61691;53.072;6.582;2023-04-06T09:19:12;19.20;;;7.80;;
73456;SDS011;61691;53.072;6.582;2023-04-06T09:21:39;21.65;;;8.65;;
73456;SDS011;61691;53.072;6.582;2023-04-06T09:24:07;20.83;;;8.93;;
73456;SDS011;61691;53.072;6.582;2023-04-06T09:26:44;20.70;;;8.73;;
73456;SDS011;61691;53.072;6.582;2023-04-06T09:29:22;21.48;;;9.20;;
73456;SDS011;61691;53.072;6.582;2023-04-06T09:32:01;23.45;;;8.85;;
73456;SDS011;61691;53.072;6.582;2023-04-06T09:34:33;22.50;;;8.85;;
73456;SDS011;61691;53.072;6.582;2023-04-06T09:37:00;21.45;;;8.57;;
73456;SDS011;61691;53.072;6.582;2023-04-06T09:39:38;22.05;;;8.98;;
73456;SDS011;61691;53.072;6.582;2023-04-06T09:42:04;22.20;;;9.20;;
73456;SDS011;61691;53.072;6.582;2023-04-06T09:44:31;22.70;;;9.13;;
73456;SDS011;61691;53.072;6.582;2023-04-06T09:46:58;21.23;;;9.07;;
73456;SDS011;61691;53.072;6.582;2023-04-06T09:49:30;20.25;;;8.75;;
73456;SDS011;61691;53.072;6.582;2023-04-06T09:52:03;23.33;;;9.35;;
73456;SDS011;61691;53.072;6.582;2023-04-06T09:54:34;19.88;;;9.45;;
73456;SDS011;61691;53.072;6.582;2023-04-06T09:57:23;21.38;;;9.57;;
73456;SDS011;61691;53.072;6.582;2023-04-06T10:08:10;23.85;;;11.45;;
73456;SDS011;61691;53.072;6.582;2023-04-06T10:13:04;25.60;;;12.32;;
73456;SDS011;61691;53.072;6.582;2023-04-06T10:15:31;22.00;;;10.95;;
73456;SDS011;61691;53.072;6.582;2023-04-06T10:17:59;24.15;;;12.57;;
73456;SDS011;61691;53.072;6.582;2023-04-06T10:20:35;24.67;;;12.70;;
73456;SDS011;61691;53.072;6.582;2023-04-06T10:23:51;27.58;;;13.80;;
73456;SDS011;61691;53.072;6.582;2023-04-06T10:26:01;28.17;;;13.45;;
73456;SDS011;61691;53.072;6.582;2023-04-06T10:28:32;25.33;;;12.75;;
73456;SDS011;61691;53.072;6.582;2023-04-06T10:31:04;26.60;;;13.15;;
73456;SDS011;61691;53.072;6.582;2023-04-06T10:33:32;25.25;;;12.52;;
73456;SDS011;61691;53.072;6.582;2023-04-06T10:38:53;26.60;;;13.50;;
73456;SDS011;61691;53.072;6.582;2023-04-06T10:41:22;29.02;;;14.52;;
73456;SDS011;61691;53.072;6.582;2023-04-06T10:43:55;27.15;;;14.38;;
73456;SDS011;61691;53.072;6.582;2023-04-06T10:46:27;28.10;;;14.18;;
73456;SDS011;61691;53.072;6.582;2023-04-06T10:48:55;27.20;;;14.48;;
73456;SDS011;61691;53.072;6.582;2023-04-06T10:51:26;29.30;;;14.50;;
73456;SDS011;61691;53.072;6.582;2023-04-06T10:53:54;27.30;;;14.25;;
73456;SDS011;61691;53.072;6.582;2023-04-06T10:56:23;27.92;;;14.52;;
73456;SDS011;61691;53.072;6.582;2023-04-06T10:58:53;30.60;;;14.63;;
73456;SDS011;61691;53.072;6.582;2023-04-06T11:01:24;28.83;;;15.13;;
73456;SDS011;61691;53.072;6.582;2023-04-06T11:03:55;27.90;;;14.80;;
73456;SDS011;61691;53.072;6.582;2023-04-06T11:06:28;27.70;;;15.65;;
73456;SDS011;61691;53.072;6.582;2023-04-06T11:08:57;30.55;;;16.55;;
73456;SDS011;61691;53.072;6.582;2023-04-06T11:11:25;27.27;;;15.75;;
73456;SDS011;61691;53.072;6.582;2023-04-06T11:16:29;31.20;;;17.45;;
73456;SDS011;61691;53.072;6.582;2023-04-06T11:18:58;28.55;;;16.50;;
73456;SDS011;61691;53.072;6.582;2023-04-06T11:24:13;29.50;;;16.70;;
73456;SDS011;61691;53.072;6.582;2023-04-06T11:26:41;31.00;;;16.65;;
73456;SDS011;61691;53.072;6.582;2023-04-06T11:29:10;31.73;;;17.73;;
73456;SDS011;61691;53.072;6.582;2023-04-06T11:31:41;27.75;;;16.48;;
73456;SDS011;61691;53.072;6.582;2023-04-06T11:34:18;30.35;;;16.75;;
73456;SDS011;61691;53.072;6.582;2023-04-06T11:36:47;28.05;;;16.75;;
73456;SDS011;61691;53.072;6.582;2023-04-06T11:39:19;29.02;;;16.23;;
73456;SDS011;61691;53.072;6.582;2023-04-06T11:41:49;27.58;;;16.52;;
73456;SDS011;61691;53.072;6.582;2023-04-06T11:47:15;30.85;;;17.35;;
73456;SDS011;61691;53.072;6.582;2023-04-06T11:49:43;32.67;;;17.10;;
73456;SDS011;61691;53.072;6.582;2023-04-06T11:52:23;29.80;;;16.83;;
73456;SDS011;61691;53.072;6.582;2023-04-06T11:54:52;28.95;;;16.77;;
73456;SDS011;61691;53.072;6.582;2023-04-06T11:57:21;29.30;;;17.23;;
73456;SDS011;61691;53.072;6.582;2023-04-06T11:59:52;30.55;;;16.98;;
73456;SDS011;61691;53.072;6.582;2023-04-06T12:02:19;31.95;;;17.05;;
73456;SDS011;61691;53.072;6.582;2023-04-06T12:04:45;30.50;;;17.80;;
73456;SDS011;61691;53.072;6.582;2023-04-06T12:07:12;30.73;;;18.25;;
73456;SDS011;61691;53.072;6.582;2023-04-06T12:09:39;30.30;;;18.00;;
73456;SDS011;61691;53.072;6.582;2023-04-06T12:12:06;28.80;;;17.58;;
73456;SDS011;61691;53.072;6.582;2023-04-06T12:14:33;28.23;;;16.42;;
73456;SDS011;61691;53.072;6.582;2023-04-06T12:17:00;30.15;;;18.33;;
73456;SDS011;61691;53.072;6.582;2023-04-06T12:19:27;28.85;;;17.25;;
73456;SDS011;61691;53.072;6.582;2023-04-06T12:21:55;31.75;;;17.15;;
73456;SDS011;61691;53.072;6.582;2023-04-06T12:24:23;28.23;;;16.92;;
73456;SDS011;61691;53.072;6.582;2023-04-06T12:26:50;27.98;;;16.48;;
73456;SDS011;61691;53.072;6.582;2023-04-06T12:29:32;29.73;;;16.75;;
73456;SDS011;61691;53.072;6.582;2023-04-06T12:31:59;26.98;;;15.68;;
73456;SDS011;61691;53.072;6.582;2023-04-06T12:34:27;28.90;;;16.80;;
73456;SDS011;61691;53.072;6.582;2023-04-06T12:36:54;28.05;;;16.33;;
73456;SDS011;61691;53.072;6.582;2023-04-06T12:39:22;28.38;;;16.45;;
73456;SDS011;61691;53.072;6.582;2023-04-06T12:41:49;29.40;;;16.77;;
73456;SDS011;61691;53.072;6.582;2023-04-06T12:44:16;29.17;;;16.50;;
73456;SDS011;61691;53.072;6.582;2023-04-06T12:46:43;28.52;;;16.10;;
73456;SDS011;61691;53.072;6.582;2023-04-06T12:49:09;28.20;;;16.45;;
73456;SDS011;61691;53.072;6.582;2023-04-06T12:51:36;28.63;;;16.48;;
73456;SDS011;61691;53.072;6.582;2023-04-06T12:54:03;33.13;;;16.80;;
73456;SDS011;61691;53.072;6.582;2023-04-06T12:56:30;27.85;;;16.50;;
73456;SDS011;61691;53.072;6.582;2023-04-06T12:58:57;29.63;;;17.67;;
73456;SDS011;61691;53.072;6.582;2023-04-06T13:01:24;30.38;;;15.98;;
73456;SDS011;61691;53.072;6.582;2023-04-06T13:03:52;28.52;;;16.40;;
73456;SDS011;61691;53.072;6.582;2023-04-06T13:06:18;30.55;;;17.10;;
73456;SDS011;61691;53.072;6.582;2023-04-06T13:08:45;30.52;;;17.17;;
73456;SDS011;61691;53.072;6.582;2023-04-06T13:11:13;31.00;;;16.83;;
73456;SDS011;61691;53.072;6.582;2023-04-06T13:13:40;29.50;;;17.20;;
73456;SDS011;61691;53.072;6.582;2023-04-06T13:16:08;27.75;;;16.25;;
73456;SDS011;61691;53.072;6.582;2023-04-06T13:18:35;29.17;;;16.13;;
73456;SDS011;61691;53.072;6.582;2023-04-06T13:21:05;31.42;;;17.40;;
73456;SDS011;61691;53.072;6.582;2023-04-06T13:23:34;29.27;;;15.75;;
73456;SDS011;61691;53.072;6.582;2023-04-06T13:26:02;27.00;;;16.23;;
73456;SDS011;61691;53.072;6.582;2023-04-06T13:28:31;27.92;;;15.00;;
73456;SDS011;61691;53.072;6.582;2023-04-06T13:31:00;28.42;;;15.98;;
73456;SDS011;61691;53.072;6.582;2023-04-06T13:33:28;31.45;;;16.77;;
73456;SDS011;61691;53.072;6.582;2023-04-06T13:35:56;27.15;;;15.27;;
73456;SDS011;61691;53.072;6.582;2023-04-06T13:38:23;27.00;;;14.65;;
73456;SDS011;61691;53.072;6.582;2023-04-06T13:40:50;27.75;;;14.52;;
73456;SDS011;61691;53.072;6.582;2023-04-06T13:43:17;26.55;;;14.32;;
73456;SDS011;61691;53.072;6.582;2023-04-06T13:45:50;28.77;;;14.05;;
73456;SDS011;61691;53.072;6.582;2023-04-06T13:48:18;24.85;;;13.65;;
73456;SDS011;61691;53.072;6.582;2023-04-06T13:50:45;27.55;;;14.70;;
73456;SDS011;61691;53.072;6.582;2023-04-06T13:53:12;25.90;;;13.48;;
73456;SDS011;61691;53.072;6.582;2023-04-06T13:55:39;27.65;;;14.73;;
73456;SDS011;61691;53.072;6.582;2023-04-06T13:58:07;29.45;;;13.18;;
73456;SDS011;61691;53.072;6.582;2023-04-06T14:00:34;25.58;;;13.95;;
73456;SDS011;61691;53.072;6.582;2023-04-06T14:03:01;26.77;;;14.73;;
73456;SDS011;61691;53.072;6.582;2023-04-06T14:05:33;26.20;;;14.20;;
73456;SDS011;61691;53.072;6.582;2023-04-06T14:08:00;26.15;;;13.02;;
73456;SDS011;61691;53.072;6.582;2023-04-06T14:10:27;25.70;;;14.13;;
73456;SDS011;61691;53.072;6.582;2023-04-06T14:12:54;24.42;;;12.30;;
73456;SDS011;61691;53.072;6.582;2023-04-06T14:15:22;26.90;;;12.70;;
73456;SDS011;61691;53.072;6.582;2023-04-06T14:17:50;24.67;;;12.00;;
73456;SDS011;61691;53.072;6.582;2023-04-06T14:20:18;26.58;;;12.57;;
73456;SDS011;61691;53.072;6.582;2023-04-06T14:22:45;25.50;;;12.10;;
73456;SDS011;61691;53.072;6.582;2023-04-06T14:25:13;25.77;;;13.20;;
73456;SDS011;61691;53.072;6.582;2023-04-06T14:27:39;24.38;;;13.18;;
73456;SDS011;61691;53.072;6.582;2023-04-06T14:30:07;23.38;;;11.40;;
73456;SDS011;61691;53.072;6.582;2023-04-06T14:32:34;23.95;;;11.52;;
73456;SDS011;61691;53.072;6.582;2023-04-06T14:35:03;24.33;;;10.80;;
73456;SDS011;61691;53.072;6.582;2023-04-06T14:37:33;23.80;;;11.23;;
73456;SDS011;61691;53.072;6.582;2023-04-06T14:40:00;21.63;;;10.77;;
73456;SDS011;61691;53.072;6.582;2023-04-06T14:42:28;22.77;;;11.77;;
73456;SDS011;61691;53.072;6.582;2023-04-06T14:44:55;24.63;;;11.75;;
73456;SDS011;61691;53.072;6.582;2023-04-06T14:47:23;22.73;;;11.93;;
73456;SDS011;61691;53.072;6.582;2023-04-06T14:49:50;23.70;;;12.57;;
73456;SDS011;61691;53.072;6.582;2023-04-06T14:52:18;26.05;;;12.60;;
73456;SDS011;61691;53.072;6.582;2023-04-06T14:54:45;25.17;;;13.30;;